sensor_id;sensor_type;location;lat;lon;timestamp;pressure;altitude;pressure_sealevel;temperature;humidity
50790;BME280;37287;47.554;7.844;2023-04-21T00:00:08;97401.16;;;3.45;100.00
50790;BME280;37287;47.554;7.844;2023-04-21T00:02:37;97402.28;;;3.44;100.00
50790;BME280;37287;47.554;7.844;2023-04-21T00:05:11;97401.47;;;3.43;100.00
50790;BME280;37287;47.554;7.844;2023-04-21T00:07:40;97398.81;;;3.43;100.00
50790;BME280;37287;47.554;7.844;2023-04-21T00:10:08;97397.63;;;3.41;100.00
50790;BME280;37287;47.554;7.844;2023-04-21T00:12:36;97396.81;;;3.40;100.00
50790;BME280;37287;47.554;7.844;2023-04-21T00:15:03;97397.50;;;3.37;100.00
50790;BME280;37287;47.554;7.844;2023-04-21T00:17:30;97388.69;;;3.37;100.00
50790;BME280;37287;47.554;7.844;2023-04-21T00:19:57;97387.91;;;3.36;100.00
50790;BME280;37287;47.554;7.844;2023-04-21T00:22:23;97384.03;;;3.34;100.00
50790;BME280;37287;47.554;7.844;2023-04-21T00:24:52;97382.13;;;3.34;100.00
50790;BME280;37287;47.554;7.844;2023-04-21T00:27:25;97389.69;;;3.32;100.00
50790;BME280;37287;47.554;7.844;2023-04-21T00:29:51;97384.69;;;3.31;100.00
50790;BME280;37287;47.554;7.844;2023-04-21T00:32:18;97382.00;;;3.31;100.00
50790;BME280;37287;47.554;7.844;2023-04-21T00:34:44;97380.81;;;3.28;100.00
50790;BME280;37287;47.554;7.844;2023-04-21T00:37:11;97378.47;;;3.26;100.00
50790;BME280;37287;47.554;7.844;2023-04-21T00:39:38;97379.25;;;3.27;100.00
50790;BME280;37287;47.554;7.844;2023-04-21T00:42:06;97374.94;;;3.22;100.00
50790;BME280;37287;47.554;7.844;2023-04-21T00:44:32;97379.41;;;3.18;100.00
50790;BME280;37287;47.554;7.844;2023-04-21T00:46:59;97377.84;;;3.17;100.00
50790;BME280;37287;47.554;7.844;2023-04-21T00:49:28;97380.16;;;3.19;100.00
50790;BME280;37287;47.554;7.844;2023-04-21T00:51:54;97372.81;;;3.16;100.00
50790;BME280;37287;47.554;7.844;2023-04-21T00:54:22;97375.72;;;3.10;100.00
50790;BME280;37287;47.554;7.844;2023-04-21T00:56:52;97366.72;;;3.03;100.00
50790;BME280;37287;47.554;7.844;2023-04-21T00:59:20;97361.81;;;2.92;100.00
50790;BME280;37287;47.554;7.844;2023-04-21T01:01:46;97361.53;;;2.82;100.00
50790;BME280;37287;47.554;7.844;2023-04-21T01:04:15;97358.97;;;2.73;100.00
50790;BME280;37287;47.554;7.844;2023-04-21T01:06:43;97363.44;;;2.69;100.00
50790;BME280;37287;47.554;7.844;2023-04-21T01:09:10;97364.34;;;2.61;100.00
50790;BME280;37287;47.554;7.844;2023-04-21T01:12:19;97363.78;;;2.55;100.00
50790;BME280;37287;47.554;7.844;2023-04-21T01:14:46;97356.09;;;2.53;100.00
50790;BME280;37287;47.554;7.844;2023-04-21T01:17:13;97356.78;;;2.50;100.00
50790;BME280;37287;47.554;7.844;2023-04-21T01:19:41;97358.22;;;2.48;100.00
50790;BME280;37287;47.554;7.844;2023-04-21T01:22:08;97361.22;;;2.46;100.00
50790;BME280;37287;47.554;7.844;2023-04-21T01:24:43;97361.22;;;2.46;100.00
50790;BME280;37287;47.554;7.844;2023-04-21T01:27:12;97363.56;;;2.48;100.00
50790;BME280;37287;47.554;7.844;2023-04-21T01:29:40;97368.56;;;2.49;100.00
50790;BME280;37287;47.554;7.844;2023-04-21T01:32:12;97362.13;;;2.50;100.00
50790;BME280;37287;47.554;7.844;2023-04-21T01:34:46;97356.88;;;2.41;100.00
50790;BME280;37287;47.554;7.844;2023-04-21T01:37:18;97360.34;;;2.42;100.00
50790;BME280;37287;47.554;7.844;2023-04-21T01:39:51;97373.22;;;2.40;100.00
50790;BME280;37287;47.554;7.844;2023-04-21T01:42:26;97365.91;;;2.49;100.00
50790;BME280;37287;47.554;7.844;2023-04-21T01:44:53;97358.97;;;2.48;100.00
50790;BME280;37287;47.554;7.844;2023-04-21T01:47:21;97360.56;;;2.49;100.00
50790;BME280;37287;47.554;7.844;2023-04-21T01:49:48;97357.00;;;2.57;100.00
50790;BME280;37287;47.554;7.844;2023-04-21T01:52:15;97352.63;;;2.65;100.00
50790;BME280;37287;47.554;7.844;2023-04-21T01:54:43;97362.09;;;2.63;100.00
50790;BME280;37287;47.554;7.844;2023-04-21T01:57:10;97358.53;;;2.58;100.00
50790;BME280;37287;47.554;7.844;2023-04-21T01:59:37;97368.88;;;2.60;100.00
50790;BME280;37287;47.554;7.844;2023-04-21T02:02:04;97367.00;;;2.61;100.00
50790;BME280;37287;47.554;7.844;2023-04-21T02:04:31;97367.56;;;2.66;100.00
50790;BME280;37287;47.554;7.844;2023-04-21T02:06:58;97367.00;;;2.61;100.00
50790;BME280;37287;47.554;7.844;2023-04-21T02:09:30;97365.78;;;2.58;100.00
50790;BME280;37287;47.554;7.844;2023-04-21T02:11:57;97371.78;;;2.55;100.00
50790;BME280;37287;47.554;7.844;2023-04-21T02:14:25;97375.91;;;2.52;100.00
50790;BME280;37287;47.554;7.844;2023-04-21T02:16:54;97390.50;;;2.55;100.00
50790;BME280;37287;47.554;7.844;2023-04-21T02:19:21;97387.59;;;2.60;100.00
50790;BME280;37287;47.554;7.844;2023-04-21T02:21:48;97385.47;;;2.66;100.00
50790;BME280;37287;47.554;7.844;2023-04-21T02:24:15;97383.69;;;2.70;100.00
50790;BME280;37287;47.554;7.844;2023-04-21T02:26:42;97386.03;;;2.71;100.00
50790;BME280;37287;47.554;7.844;2023-04-21T02:29:09;97390.81;;;2.78;100.00
50790;BME280;37287;47.554;7.844;2023-04-21T02:31:37;97379.78;;;2.80;100.00
50790;BME280;37287;47.554;7.844;2023-04-21T02:34:19;97387.13;;;2.83;100.00
50790;BME280;37287;47.554;7.844;2023-04-21T02:36:46;97386.91;;;2.88;100.00
50790;BME280;37287;47.554;7.844;2023-04-21T02:39:13;97379.00;;;2.91;100.00
50790;BME280;37287;47.554;7.844;2023-04-21T02:41:40;97391.69;;;2.95;100.00
50790;BME280;37287;47.554;7.844;2023-04-21T02:44:08;97381.00;;;2.95;100.00
50790;BME280;37287;47.554;7.844;2023-04-21T02:46:35;97379.00;;;2.91;100.00
50790;BME280;37287;47.554;7.844;2023-04-21T02:49:04;97385.47;;;2.90;100.00
50790;BME280;37287;47.554;7.844;2023-04-21T02:51:33;97380.78;;;2.87;100.00
50790;BME280;37287;47.554;7.844;2023-04-21T02:54:00;97383.81;;;2.86;100.00
50790;BME280;37287;47.554;7.844;2023-04-21T02:56:26;97370.78;;;2.84;100.00
50790;BME280;37287;47.554;7.844;2023-04-21T02:58:53;97368.41;;;2.83;100.00
50790;BME280;37287;47.554;7.844;2023-04-21T03:01:20;97379.91;;;2.83;100.00
50790;BME280;37287;47.554;7.844;2023-04-21T03:03:46;97378.34;;;2.82;100.00
50790;BME280;37287;47.554;7.844;2023-04-21T03:06:15;97369.63;;;2.85;100.00
50790;BME280;37287;47.554;7.844;2023-04-21T03:08:42;97383.47;;;2.87;100.00
50790;BME280;37287;47.554;7.844;2023-04-21T03:11:10;97384.22;;;2.88;100.00
50790;BME280;37287;47.554;7.844;2023-04-21T03:13:37;97387.03;;;2.91;100.00
50790;BME280;37287;47.554;7.844;2023-04-21T03:16:04;97378.75;;;2.97;100.00
50790;BME280;37287;47.554;7.844;2023-04-21T03:18:33;97378.53;;;3.02;100.00
50790;BME280;37287;47.554;7.844;2023-04-21T03:21:02;97380.19;;;3.06;100.00
50790;BME280;37287;47.554;7.844;2023-04-21T03:23:29;97380.31;;;3.10;100.00
50790;BME280;37287;47.554;7.844;2023-04-21T03:25:55;97379.28;;;3.15;100.00
50790;BME280;37287;47.554;7.844;2023-04-21T03:28:23;97375.50;;;3.16;100.00
50790;BME280;37287;47.554;7.844;2023-04-21T03:30:52;97376.25;;;3.16;100.00
50790;BME280;37287;47.554;7.844;2023-04-21T03:33:19;97378.94;;;3.16;100.00
50790;BME280;37287;47.554;7.844;2023-04-21T03:35:47;97381.63;;;3.16;100.00
50790;BME280;37287;47.554;7.844;2023-04-21T03:38:14;97378.16;;;3.16;100.00
50790;BME280;37287;47.554;7.844;2023-04-21T03:40:41;97376.38;;;3.20;100.00
50790;BME280;37287;47.554;7.844;2023-04-21T03:43:09;97377.25;;;3.24;100.00
50790;BME280;37287;47.554;7.844;2023-04-21T03:45:35;97375.34;;;3.24;100.00
50790;BME280;37287;47.554;7.844;2023-04-21T03:48:02;97382.28;;;3.25;100.00
50790;BME280;37287;47.554;7.844;2023-04-21T03:50:29;97377.00;;;3.29;100.00
50790;BME280;37287;47.554;7.844;2023-04-21T03:52:56;97373.66;;;3.32;100.00
50790;BME280;37287;47.554;7.844;2023-04-21T03:55:22;97382.13;;;3.34;100.00
50790;BME280;37287;47.554;7.844;2023-04-21T03:57:50;97374.09;;;3.34;100.00
50790;BME280;37287;47.554;7.844;2023-04-21T04:00:17;97381.03;;;3.35;100.00
50790;BME280;37287;47.554;7.844;2023-04-21T04:02:44;97378.88;;;3.41;100.00
50790;BME280;37287;47.554;7.844;2023-04-21T04:05:11;97376.97;;;3.41;100.00
50790;BME280;37287;47.554;7.844;2023-04-21T04:07:38;97378.44;;;3.39;100.00
50790;BME280;37287;47.554;7.844;2023-04-21T04:10:04;97378.44;;;3.39;100.00
50790;BME280;37287;47.554;7.844;2023-04-21T04:12:37;97373.06;;;3.39;100.00
50790;BME280;37287;47.554;7.844;2023-04-21T04:15:06;97375.75;;;3.39;100.00
50790;BME280;37287;47.554;7.844;2023-04-21T04:17:40;97376.22;;;3.41;100.00
50790;BME280;37287;47.554;7.844;2023-04-21T04:20:08;97373.63;;;3.44;100.00
50790;BME280;37287;47.554;7.844;2023-04-21T04:22:35;97373.28;;;3.46;100.00
50790;BME280;37287;47.554;7.844;2023-04-21T04:25:02;97367.91;;;3.46;100.00
50790;BME280;37287;47.554;7.844;2023-04-21T04:27:33;97373.28;;;3.46;100.00
50790;BME280;37287;47.554;7.844;2023-04-21T04:29:59;97373.28;;;3.46;100.00
50790;BME280;37287;47.554;7.844;2023-04-21T04:32:26;97373.28;;;3.46;100.00
50790;BME280;37287;47.554;7.844;2023-04-21T04:34:58;97376.75;;;3.47;100.00
50790;BME280;37287;47.554;7.844;2023-04-21T04:37:25;97377.50;;;3.47;100.00
50790;BME280;37287;47.554;7.844;2023-04-21T04:39:52;97375.59;;;3.48;100.00
50790;BME280;37287;47.554;7.844;2023-04-21T04:42:20;97374.16;;;3.50;100.00
50790;BME280;37287;47.554;7.844;2023-04-21T04:44:47;97378.72;;;3.50;100.00
50790;BME280;37287;47.554;7.844;2023-04-21T04:47:13;97376.41;;;3.48;100.00
50790;BME280;37287;47.554;7.844;2023-04-21T04:49:44;97377.16;;;3.49;100.00
50790;BME280;37287;47.554;7.844;2023-04-21T04:52:11;97380.63;;;3.49;100.00
50790;BME280;37287;47.554;7.844;2023-04-21T04:54:37;97381.41;;;3.50;100.00
50790;BME280;37287;47.554;7.844;2023-04-21T04:57:06;97376.25;;;3.57;100.00
50790;BME280;37287;47.554;7.844;2023-04-21T04:59:32;97376.97;;;3.70;100.00
50790;BME280;37287;47.554;7.844;2023-04-21T05:01:59;97378.22;;;3.88;100.00
50790;BME280;37287;47.554;7.844;2023-04-21T05:04:25;97376.44;;;4.40;100.00
50790;BME280;37287;47.554;7.844;2023-04-21T05:06:53;97378.06;;;5.32;100.00
50790;BME280;37287;47.554;7.844;2023-04-21T05:09:21;97379.94;;;5.90;100.00
50790;BME280;37287;47.554;7.844;2023-04-21T05:11:51;97377.28;;;6.36;100.00
50790;BME280;37287;47.554;7.844;2023-04-21T05:14:18;97374.00;;;6.74;100.00
50790;BME280;37287;47.554;7.844;2023-04-21T05:16:45;97376.25;;;6.95;100.00
50790;BME280;37287;47.554;7.844;2023-04-21T05:19:11;97384.66;;;7.20;100.00
50790;BME280;37287;47.554;7.844;2023-04-21T05:21:38;97389.28;;;7.53;98.37
50790;BME280;37287;47.554;7.844;2023-04-21T05:24:05;97386.34;;;7.66;98.15
50790;BME280;37287;47.554;7.844;2023-04-21T05:26:43;97384.53;;;7.73;96.87
50790;BME280;37287;47.554;7.844;2023-04-21T05:29:10;97373.06;;;8.25;98.56
50790;BME280;37287;47.554;7.844;2023-04-21T05:31:36;97388.78;;;8.57;94.11
50790;BME280;37287;47.554;7.844;2023-04-21T05:34:04;97388.22;;;8.89;87.12
50790;BME280;37287;47.554;7.844;2023-04-21T05:36:31;97384.53;;;9.19;90.58
50790;BME280;37287;47.554;7.844;2023-04-21T05:38:57;97381.00;;;9.07;86.91
50790;BME280;37287;47.554;7.844;2023-04-21T05:41:26;97374.97;;;9.36;91.28
50790;BME280;37287;47.554;7.844;2023-04-21T05:43:53;97380.34;;;9.25;90.07
50790;BME280;37287;47.554;7.844;2023-04-21T05:46:19;97385.88;;;9.50;85.74
50790;BME280;37287;47.554;7.844;2023-04-21T05:48:46;97395.97;;;9.68;85.22
50790;BME280;37287;47.554;7.844;2023-04-21T05:51:15;97385.88;;;9.50;87.88
50790;BME280;37287;47.554;7.844;2023-04-21T05:53:44;97385.59;;;10.02;88.96
50790;BME280;37287;47.554;7.844;2023-04-21T05:56:11;97387.47;;;9.73;86.53
50790;BME280;37287;47.554;7.844;2023-04-21T05:58:38;97391.34;;;9.75;84.24
50790;BME280;37287;47.554;7.844;2023-04-21T06:01:05;97394.59;;;9.22;86.16
50790;BME280;37287;47.554;7.844;2023-04-21T06:03:35;97384.88;;;9.10;85.98
50790;BME280;37287;47.554;7.844;2023-04-21T06:06:05;97391.50;;;9.20;92.90
50790;BME280;37287;47.554;7.844;2023-04-21T06:08:31;97392.13;;;9.76;81.50
50790;BME280;37287;47.554;7.844;2023-04-21T06:10:58;97388.31;;;10.09;87.10
50790;BME280;37287;47.554;7.844;2023-04-21T06:13:26;97390.28;;;10.12;82.76
50790;BME280;37287;47.554;7.844;2023-04-21T06:15:55;97390.31;;;10.92;82.96
50790;BME280;37287;47.554;7.844;2023-04-21T06:18:26;97388.38;;;10.96;79.58
50790;BME280;37287;47.554;7.844;2023-04-21T06:20:53;97380.59;;;10.15;78.66
50790;BME280;37287;47.554;7.844;2023-04-21T06:23:20;97385.28;;;10.76;82.68
50790;BME280;37287;47.554;7.844;2023-04-21T06:26:03;97386.84;;;10.37;82.95
50790;BME280;37287;47.554;7.844;2023-04-21T06:28:33;97389.41;;;9.69;76.95
50790;BME280;37287;47.554;7.844;2023-04-21T06:31:03;97384.63;;;9.33;84.74
50790;BME280;37287;47.554;7.844;2023-04-21T06:33:34;97393.13;;;9.35;82.98
50790;BME280;37287;47.554;7.844;2023-04-21T06:36:01;97383.22;;;8.87;85.77
50790;BME280;37287;47.554;7.844;2023-04-21T06:38:37;97388.13;;;8.74;86.93
50790;BME280;37287;47.554;7.844;2023-04-21T06:41:05;97383.06;;;9.32;89.61
50790;BME280;37287;47.554;7.844;2023-04-21T06:43:33;97382.81;;;9.66;82.48
50790;BME280;37287;47.554;7.844;2023-04-21T06:46:06;97375.97;;;10.15;86.05
50790;BME280;37287;47.554;7.844;2023-04-21T06:48:40;97370.91;;;9.89;79.80
50790;BME280;37287;47.554;7.844;2023-04-21T06:51:07;97370.16;;;9.99;82.59
50790;BME280;37287;47.554;7.844;2023-04-21T06:53:35;97371.22;;;9.62;84.18
50790;BME280;37287;47.554;7.844;2023-04-21T06:56:03;97373.28;;;9.02;87.21
50790;BME280;37287;47.554;7.844;2023-04-21T06:58:30;97375.44;;;8.78;87.92
50790;BME280;37287;47.554;7.844;2023-04-21T07:00:58;97380.63;;;8.08;87.60
50790;BME280;37287;47.554;7.844;2023-04-21T07:03:25;97377.16;;;8.08;90.72
50790;BME280;37287;47.554;7.844;2023-04-21T07:05:51;97376.84;;;7.75;91.81
50790;BME280;37287;47.554;7.844;2023-04-21T07:08:20;97380.13;;;7.58;93.22
50790;BME280;37287;47.554;7.844;2023-04-21T07:10:47;97380.09;;;7.24;93.53
50790;BME280;37287;47.554;7.844;2023-04-21T07:13:13;97379.56;;;7.15;96.36
50790;BME280;37287;47.554;7.844;2023-04-21T07:15:43;97375.88;;;6.96;96.94
50790;BME280;37287;47.554;7.844;2023-04-21T07:18:10;97368.47;;;6.89;97.55
50790;BME280;37287;47.554;7.844;2023-04-21T07:20:38;97372.03;;;6.97;100.00
50790;BME280;37287;47.554;7.844;2023-04-21T07:23:11;97370.31;;;6.85;99.66
50790;BME280;37287;47.554;7.844;2023-04-21T07:25:37;97373.66;;;6.75;99.74
50790;BME280;37287;47.554;7.844;2023-04-21T07:28:04;97368.72;;;6.81;100.00
50790;BME280;37287;47.554;7.844;2023-04-21T07:30:32;97369.66;;;6.65;100.00
50790;BME280;37287;47.554;7.844;2023-04-21T07:32:59;97366.66;;;6.70;100.00
50790;BME280;37287;47.554;7.844;2023-04-21T07:35:26;97374.31;;;6.68;100.00
50790;BME280;37287;47.554;7.844;2023-04-21T07:37:54;97370.56;;;6.50;100.00
50790;BME280;37287;47.554;7.844;2023-04-21T07:40:21;97352.88;;;6.49;100.00
50790;BME280;37287;47.554;7.844;2023-04-21T07:42:48;97357.78;;;6.66;100.00
50790;BME280;37287;47.554;7.844;2023-04-21T07:45:19;97356.00;;;7.04;100.00
50790;BME280;37287;47.554;7.844;2023-04-21T07:47:45;97353.78;;;6.83;99.88
50790;BME280;37287;47.554;7.844;2023-04-21T07:50:12;97353.22;;;6.70;100.00
50790;BME280;37287;47.554;7.844;2023-04-21T07:52:40;97351.00;;;6.76;100.00
50790;BME280;37287;47.554;7.844;2023-04-21T07:55:09;97348.44;;;6.60;100.00
50790;BME280;37287;47.554;7.844;2023-04-21T07:57:36;97352.22;;;6.56;100.00
50790;BME280;37287;47.554;7.844;2023-04-21T08:00:05;97342.59;;;6.54;100.00
50790;BME280;37287;47.554;7.844;2023-04-21T08:02:31;97348.41;;;6.57;100.00
50790;BME280;37287;47.554;7.844;2023-04-21T08:04:58;97342.91;;;6.49;100.00
50790;BME280;37287;47.554;7.844;2023-04-21T08:07:27;97347.41;;;6.42;100.00
50790;BME280;37287;47.554;7.844;2023-04-21T08:09:53;97340.97;;;6.46;100.00
50790;BME280;37287;47.554;7.844;2023-04-21T08:12:20;97338.50;;;6.37;100.00
50790;BME280;37287;47.554;7.844;2023-04-21T08:14:48;97348.66;;;6.48;100.00
50790;BME280;37287;47.554;7.844;2023-04-21T08:17:14;97338.94;;;6.40;100.00
50790;BME280;37287;47.554;7.844;2023-04-21T08:19:41;97332.16;;;6.49;100.00
50790;BME280;37287;47.554;7.844;2023-04-21T08:22:14;97337.13;;;6.74;100.00
50790;BME280;37287;47.554;7.844;2023-04-21T08:24:41;97341.09;;;6.84;100.00
50790;BME280;37287;47.554;7.844;2023-04-21T08:27:07;97348.56;;;6.94;100.00
50790;BME280;37287;47.554;7.844;2023-04-21T08:29:34;97342.34;;;7.20;100.00
50790;BME280;37287;47.554;7.844;2023-04-21T08:32:02;97346.91;;;7.50;99.48
50790;BME280;37287;47.554;7.844;2023-04-21T08:34:30;97338.16;;;7.57;96.75
50790;BME280;37287;47.554;7.844;2023-04-21T08:36:59;97331.19;;;7.52;97.43
50790;BME280;37287;47.554;7.844;2023-04-21T08:39:26;97332.94;;;7.75;97.93
50790;BME280;37287;47.554;7.844;2023-04-21T08:41:53;97330.19;;;7.68;95.34
50790;BME280;37287;47.554;7.844;2023-04-21T08:44:22;97337.38;;;7.56;96.45
50790;BME280;37287;47.554;7.844;2023-04-21T08:46:49;97344.31;;;7.57;96.15
50790;BME280;37287;47.554;7.844;2023-04-21T08:49:18;97343.47;;;7.53;96.50
50790;BME280;37287;47.554;7.844;2023-04-21T08:51:47;97346.72;;;7.66;98.20
50790;BME280;37287;47.554;7.844;2023-04-21T08:54:14;97342.47;;;8.06;93.65
50790;BME280;37287;47.554;7.844;2023-04-21T08:56:40;97355.03;;;7.88;93.84
50790;BME280;37287;47.554;7.844;2023-04-21T08:59:07;97347.19;;;8.17;93.62
50790;BME280;37287;47.554;7.844;2023-04-21T09:04:41;97345.34;;;8.76;90.00
50790;BME280;37287;47.554;7.844;2023-04-21T09:07:09;97344.72;;;9.01;90.08
50790;BME280;37287;47.554;7.844;2023-04-21T09:09:50;97346.72;;;9.19;85.64
50790;BME280;37287;47.554;7.844;2023-04-21T09:12:19;97352.97;;;9.34;88.54
50790;BME280;37287;47.554;7.844;2023-04-21T09:14:46;97354.91;;;9.33;86.14
50790;BME280;37287;47.554;7.844;2023-04-21T09:17:17;97348.84;;;9.69;85.17
50790;BME280;37287;47.554;7.844;2023-04-21T09:19:45;97352.25;;;9.48;84.10
50790;BME280;37287;47.554;7.844;2023-04-21T09:22:16;97350.28;;;9.37;87.27
50790;BME280;37287;47.554;7.844;2023-04-21T09:24:47;97347.97;;;9.43;85.81
50790;BME280;37287;47.554;7.844;2023-04-21T09:27:16;97346.16;;;9.69;85.29
50790;BME280;37287;47.554;7.844;2023-04-21T09:29:46;97343.78;;;9.60;85.23
50790;BME280;37287;47.554;7.844;2023-04-21T09:32:18;97335.69;;;9.63;85.33
50790;BME280;37287;47.554;7.844;2023-04-21T09:34:59;97327.94;;;9.51;84.99
50790;BME280;37287;47.554;7.844;2023-04-21T09:37:31;97334.22;;;9.88;86.37
50790;BME280;37287;47.554;7.844;2023-04-21T09:39:58;97334.59;;;9.93;84.84
50790;BME280;37287;47.554;7.844;2023-04-21T09:42:33;97330.78;;;10.12;86.54
50790;BME280;37287;47.554;7.844;2023-04-21T09:45:07;97320.72;;;10.42;85.63
50790;BME280;37287;47.554;7.844;2023-04-21T09:47:58;97334.66;;;10.40;81.66
50790;BME280;37287;47.554;7.844;2023-04-21T09:50:31;97333.47;;;10.20;81.77
50790;BME280;37287;47.554;7.844;2023-04-21T09:53:20;97341.19;;;10.32;82.38
50790;BME280;37287;47.554;7.844;2023-04-21T09:55:50;97332.34;;;10.39;85.12
50790;BME280;37287;47.554;7.844;2023-04-21T09:58:19;97326.91;;;10.75;82.24
50790;BME280;37287;47.554;7.844;2023-04-21T10:00:48;97332.63;;;11.02;81.38
50790;BME280;37287;47.554;7.844;2023-04-21T10:03:16;97318.81;;;10.42;78.96
50790;BME280;37287;47.554;7.844;2023-04-21T10:05:43;97317.25;;;10.41;85.03
50790;BME280;37287;47.554;7.844;2023-04-21T10:08:10;97310.31;;;10.44;80.96
50790;BME280;37287;47.554;7.844;2023-04-21T10:10:41;97306.41;;;10.77;84.83
50790;BME280;37287;47.554;7.844;2023-04-21T10:13:14;97296.25;;;11.03;83.62
50790;BME280;37287;47.554;7.844;2023-04-21T10:15:47;97300.53;;;10.97;80.10
50790;BME280;37287;47.554;7.844;2023-04-21T10:18:18;97305.19;;;10.86;80.41
50790;BME280;37287;47.554;7.844;2023-04-21T10:20:57;97298.22;;;10.92;83.23
50790;BME280;37287;47.554;7.844;2023-04-21T10:23:35;97285.97;;;11.50;83.23
50790;BME280;37287;47.554;7.844;2023-04-21T10:26:07;97298.16;;;11.84;79.38
50790;BME280;37287;47.554;7.844;2023-04-21T10:34:14;97317.34;;;11.48;79.78
50790;BME280;37287;47.554;7.844;2023-04-21T10:36:46;97316.28;;;11.24;82.11
50790;BME280;37287;47.554;7.844;2023-04-21T10:39:29;97325.16;;;11.39;79.36
50790;BME280;37287;47.554;7.844;2023-04-21T10:42:17;97321.81;;;10.95;78.78
50790;BME280;37287;47.554;7.844;2023-04-21T10:44:51;97314.06;;;11.00;82.58
50790;BME280;37287;47.554;7.844;2023-04-21T10:47:39;97317.19;;;10.92;80.90
50790;BME280;37287;47.554;7.844;2023-04-21T10:50:17;97305.16;;;10.93;80.80
50790;BME280;37287;47.554;7.844;2023-04-21T10:52:56;97301.25;;;11.12;79.45
50790;BME280;37287;47.554;7.844;2023-04-21T10:55:26;97307.47;;;11.05;81.49
50790;BME280;37287;47.554;7.844;2023-04-21T10:58:18;97309.06;;;10.88;82.93
50790;BME280;37287;47.554;7.844;2023-04-21T11:00:46;97303.16;;;11.15;82.52
50790;BME280;37287;47.554;7.844;2023-04-21T11:03:23;97300.75;;;11.35;81.32
50790;BME280;37287;47.554;7.844;2023-04-21T11:05:50;97300.50;;;11.08;80.55
50790;BME280;37287;47.554;7.844;2023-04-21T11:08:17;97303.16;;;11.18;82.97
50790;BME280;37287;47.554;7.844;2023-04-21T11:10:54;97308.97;;;11.21;82.50
50790;BME280;37287;47.554;7.844;2023-04-21T11:13:27;97317.47;;;11.15;80.40
50790;BME280;37287;47.554;7.844;2023-04-21T11:16:04;97316.38;;;11.02;81.39
50790;BME280;37287;47.554;7.844;2023-04-21T11:18:39;97320.69;;;10.89;80.32
50790;BME280;37287;47.554;7.844;2023-04-21T11:21:11;97322.25;;;10.68;82.29
50790;BME280;37287;47.554;7.844;2023-04-21T11:23:39;97331.19;;;10.58;80.81
50790;BME280;37287;47.554;7.844;2023-04-21T11:26:09;97319.56;;;10.18;83.63
50790;BME280;37287;47.554;7.844;2023-04-21T11:28:36;97320.31;;;10.00;83.39
50790;BME280;37287;47.554;7.844;2023-04-21T11:31:03;97319.53;;;9.85;83.99
50790;BME280;37287;47.554;7.844;2023-04-21T11:33:35;97319.91;;;9.76;83.20
50790;BME280;37287;47.554;7.844;2023-04-21T11:36:09;97325.28;;;9.69;84.54
50790;BME280;37287;47.554;7.844;2023-04-21T11:38:37;97331.03;;;9.57;85.78
50790;BME280;37287;47.554;7.844;2023-04-21T11:41:04;97333.38;;;9.66;86.84
50790;BME280;37287;47.554;7.844;2023-04-21T11:43:31;97339.94;;;9.61;85.98
50790;BME280;37287;47.554;7.844;2023-04-21T11:46:24;97355.78;;;9.59;86.57
50790;BME280;37287;47.554;7.844;2023-04-21T11:51:37;97346.44;;;9.45;87.36
50790;BME280;37287;47.554;7.844;2023-04-21T11:54:07;97352.66;;;9.46;87.45
50790;BME280;37287;47.554;7.844;2023-04-21T11:56:36;97344.94;;;9.52;87.35
50790;BME280;37287;47.554;7.844;2023-04-21T11:59:14;97336.09;;;9.62;87.09
50790;BME280;37287;47.554;7.844;2023-04-21T12:01:45;97321.81;;;9.61;86.43
50790;BME280;37287;47.554;7.844;2023-04-21T12:04:14;97317.16;;;9.66;86.52
50790;BME280;37287;47.554;7.844;2023-04-21T12:06:43;97319.50;;;9.67;87.46
50790;BME280;37287;47.554;7.844;2023-04-21T12:09:17;97326.06;;;9.77;86.86
50790;BME280;37287;47.554;7.844;2023-04-21T12:11:49;97337.31;;;9.93;87.36
50790;BME280;37287;47.554;7.844;2023-04-21T12:14:17;97328.47;;;10.18;85.28
50790;BME280;37287;47.554;7.844;2023-04-21T12:16:48;97332.72;;;10.37;85.42
50790;BME280;37287;47.554;7.844;2023-04-21T12:19:22;97330.78;;;10.59;83.62
50790;BME280;37287;47.554;7.844;2023-04-21T12:21:54;97332.28;;;10.82;83.85
50790;BME280;37287;47.554;7.844;2023-04-21T12:24:23;97329.91;;;11.02;80.47
50790;BME280;37287;47.554;7.844;2023-04-21T12:26:50;97337.31;;;10.91;77.48
50790;BME280;37287;47.554;7.844;2023-04-21T12:29:17;97330.31;;;10.97;76.93
50790;BME280;37287;47.554;7.844;2023-04-21T12:31:43;97334.56;;;11.05;77.33
50790;BME280;37287;47.554;7.844;2023-04-21T12:34:10;97334.91;;;11.14;77.13
50790;BME280;37287;47.554;7.844;2023-04-21T12:36:40;97339.53;;;11.25;75.24
50790;BME280;37287;47.554;7.844;2023-04-21T12:39:07;97333.75;;;11.08;75.88
50790;BME280;37287;47.554;7.844;2023-04-21T12:41:34;97321.78;;;11.02;76.11
50790;BME280;37287;47.554;7.844;2023-04-21T12:44:01;97317.13;;;11.06;76.35
50790;BME280;37287;47.554;7.844;2023-04-21T12:46:27;97320.63;;;11.07;76.39
50790;BME280;37287;47.554;7.844;2023-04-21T12:48:56;97321.84;;;10.88;76.12
50790;BME280;37287;47.554;7.844;2023-04-21T12:51:29;97328.84;;;10.67;75.78
50790;BME280;37287;47.554;7.844;2023-04-21T12:53:56;97324.97;;;10.57;77.66
50790;BME280;37287;47.554;7.844;2023-04-21T12:56:23;97332.31;;;10.53;80.42
50790;BME280;37287;47.554;7.844;2023-04-21T12:58:49;97325.38;;;10.48;80.75
50790;BME280;37287;47.554;7.844;2023-04-21T13:01:20;97340.47;;;10.39;81.52
50790;BME280;37287;47.554;7.844;2023-04-21T13:03:46;97343.94;;;10.39;81.98
50790;BME280;37287;47.554;7.844;2023-04-21T13:06:14;97333.50;;;10.34;83.18
50790;BME280;37287;47.554;7.844;2023-04-21T13:08:40;97341.19;;;10.32;83.02
50790;BME280;37287;47.554;7.844;2023-04-21T13:11:07;97338.13;;;10.30;82.84
50790;BME280;37287;47.554;7.844;2023-04-21T13:13:35;97328.44;;;10.29;84.17
50790;BME280;37287;47.554;7.844;2023-04-21T13:16:02;97329.63;;;10.28;85.62
50790;BME280;37287;47.554;7.844;2023-04-21T13:18:29;97338.50;;;10.21;84.69
50790;BME280;37287;47.554;7.844;2023-04-21T13:20:55;97337.31;;;10.15;84.07
50790;BME280;37287;47.554;7.844;2023-04-21T13:23:22;97342.72;;;10.15;84.74